createdAt,value
2023-05-22T00:00:21.617Z,101495.59
2023-05-22T00:02:50.758Z,101498.00
2023-05-22T00:05:18.416Z,101500.13
2023-05-22T00:07:46.760Z,101490.66
2023-05-22T00:10:13.737Z,101494.69
2023-05-22T00:12:40.723Z,101496.03
2023-05-22T00:15:09.248Z,101493.81
2023-05-22T00:17:36.569Z,101495.41
2023-05-22T00:20:06.781Z,101490.28
2023-05-22T00:22:36.597Z,101491.34
2023-05-22T00:25:06.808Z,101489.97
2023-05-22T00:27:34.371Z,101492.94
2023-05-22T00:30:01.691Z,101489.69
2023-05-22T00:32:29.078Z,101484.31
2023-05-22T00:34:56.073Z,101481.84
2023-05-22T00:37:23.119Z,101476.44
2023-05-22T00:39:50.125Z,101477.78
2023-05-22T00:42:18.876Z,101468.31
2023-05-22T00:44:45.977Z,101474.47
2023-05-22T00:47:12.983Z,101471.72
2023-05-22T00:49:40.604Z,101468.75
2023-05-22T00:52:09.015Z,101463.84
2023-05-22T00:54:36.794Z,101467.88
2023-05-22T00:57:05.145Z,101470.00
2023-05-22T00:59:33.595Z,101459.72
2023-05-22T01:02:01.527Z,101463.75
2023-05-22T01:04:32.711Z,101453.50
2023-05-22T01:07:02.741Z,101458.53
2023-05-22T01:09:29.987Z,101452.84
2023-05-22T01:12:05.952Z,101456.31
2023-05-22T01:14:53.535Z,101460.28
2023-05-22T01:17:34.593Z,101459.72
2023-05-22T01:20:16.858Z,101460.72
2023-05-22T01:23:26.164Z,101457.91
2023-05-22T01:26:11.402Z,101463.56
2023-05-22T01:29:00.881Z,101453.53
2023-05-22T01:31:33.813Z,101455.16
2023-05-22T01:34:03.212Z,101452.72
2023-05-22T01:36:35.101Z,101456.16
2023-05-22T01:39:05.985Z,101452.09
2023-05-22T01:41:34.069Z,101443.72
2023-05-22T01:44:03.064Z,101446.91
2023-05-22T01:46:31.635Z,101441.19
2023-05-22T01:48:59.126Z,101440.91
2023-05-22T01:51:39.542Z,101440.25
2023-05-22T01:54:18.016Z,101432.91
2023-05-22T01:56:54.761Z,101436.38
2023-05-22T01:59:32.847Z,101437.91
2023-05-22T02:02:07.509Z,101436.78
2023-05-22T02:05:00.618Z,101433.47
2023-05-22T02:07:37.721Z,101439.34
2023-05-22T02:10:08.432Z,101434.47
2023-05-22T02:12:36.380Z,101440.91
2023-05-22T02:15:06.053Z,101436.56
2023-05-22T02:17:40.200Z,101438.16
2023-05-22T02:20:15.186Z,101440.53
2023-05-22T02:22:44.364Z,101442.63
2023-05-22T02:25:14.352Z,101440.47
2023-05-22T02:27:41.964Z,101438.81
2023-05-22T02:30:09.944Z,101438.25
2023-05-22T02:32:38.966Z,101439.56
2023-05-22T02:35:06.719Z,101429.28
2023-05-22T02:37:34.004Z,101426.03
2023-05-22T02:40:01.008Z,101418.22
2023-05-22T02:42:27.949Z,101421.13
2023-05-22T02:44:54.866Z,101415.19
2023-05-22T02:47:21.788Z,101417.31
2023-05-22T02:49:50.108Z,101416.75
2023-05-22T02:52:17.109Z,101413.50
2023-05-22T02:54:44.329Z,101410.22
2023-05-22T02:57:11.338Z,101410.69
2023-05-22T02:59:38.707Z,101408.28
2023-05-22T03:02:06.260Z,101408.75
2023-05-22T03:04:34.038Z,101401.50
2023-05-22T03:07:02.676Z,101402.56
2023-05-22T03:09:29.688Z,101400.13
2023-05-22T03:11:56.593Z,101398.22
2023-05-22T03:14:23.602Z,101394.75
2023-05-22T03:16:50.705Z,101390.41
2023-05-22T03:19:17.875Z,101387.72
2023-05-22T03:21:44.775Z,101385.28
2023-05-22T03:24:13.037Z,101393.91
2023-05-22T03:26:39.955Z,101386.91
2023-05-22T03:29:06.881Z,101396.59
2023-05-22T03:31:34.598Z,101387.22
2023-05-22T03:34:02.203Z,101388.06
2023-05-22T03:36:32.308Z,101389.09
2023-05-22T03:38:59.474Z,101390.75
2023-05-22T03:41:27.918Z,101390.50
2023-05-22T03:43:54.808Z,101395.03
2023-05-22T03:46:21.985Z,101398.31
2023-05-22T03:48:48.936Z,101399.94
2023-05-22T03:51:18.079Z,101405.63
2023-05-22T03:53:46.232Z,101399.78
2023-05-22T03:56:13.142Z,101403.03
2023-05-22T03:58:41.388Z,101401.75
2023-05-22T04:01:09.827Z,101402.31
2023-05-22T04:03:37.094Z,101405.59
2023-05-22T04:06:05.773Z,101403.69
2023-05-22T04:08:33.018Z,101402.88
2023-05-22T04:11:00.049Z,101405.59
2023-05-22T04:13:27.723Z,101399.13
2023-05-22T04:15:56.683Z,101406.63
2023-05-22T04:18:23.685Z,101402.06
2023-05-22T04:20:51.790Z,101394.00
2023-05-22T04:23:18.826Z,101400.75
2023-05-22T04:25:47.753Z,101410.22
2023-05-22T04:28:17.453Z,101401.06
2023-05-22T04:30:44.701Z,101414.28
2023-05-22T04:33:13.453Z,101411.59
2023-05-22T04:35:40.861Z,101398.16
2023-05-22T04:38:07.855Z,101408.38
2023-05-22T04:40:34.906Z,101399.25
2023-05-22T04:43:01.893Z,101401.69
2023-05-22T04:45:29.479Z,101399.25
2023-05-22T04:47:56.599Z,101395.75
2023-05-22T04:50:25.026Z,101395.50
2023-05-22T04:52:53.342Z,101396.31
2023-05-22T04:55:39.796Z,101400.66
2023-05-22T04:58:28.446Z,101400.38
2023-05-22T05:01:13.294Z,101394.53
2023-05-22T05:03:40.298Z,101393.50
2023-05-22T05:06:08.652Z,101392.53
2023-05-22T05:08:35.641Z,101396.06
2023-05-22T05:11:02.602Z,101385.63
2023-05-22T05:13:29.577Z,101389.44
2023-05-22T05:15:59.212Z,101388.94
2023-05-22T05:18:26.591Z,101395.44
2023-05-22T05:20:53.873Z,101394.41
2023-05-22T05:23:22.272Z,101388.50
2023-05-22T05:25:49.192Z,101391.31
2023-05-22T05:28:16.092Z,101393.78
2023-05-22T05:30:43.191Z,101389.84
2023-05-22T05:33:10.331Z,101389.88
2023-05-22T05:35:37.333Z,101388.06
2023-05-22T05:38:04.272Z,101399.16
2023-05-22T05:40:32.520Z,101399.94
2023-05-22T05:42:59.506Z,101409.41
2023-05-22T05:45:26.450Z,101409.44
2023-05-22T05:47:53.402Z,101415.72
2023-05-22T05:50:20.926Z,101411.19
2023-05-22T05:52:47.895Z,101403.13
2023-05-22T05:55:15.016Z,101409.41
2023-05-22T05:57:43.425Z,101409.72
2023-05-22T06:00:11.979Z,101419.72
2023-05-22T06:02:39.028Z,101420.59
2023-05-22T06:05:06.994Z,101420.41
2023-05-22T06:07:34.295Z,101418.81
2023-05-22T06:10:01.254Z,101424.81
2023-05-22T06:12:28.260Z,101422.16
2023-05-22T06:14:56.792Z,101424.63
2023-05-22T06:17:23.900Z,101424.13
2023-05-22T06:19:50.960Z,101422.28
2023-05-22T06:22:17.983Z,101423.38
2023-05-22T06:24:44.908Z,101424.78
2023-05-22T06:27:11.802Z,101414.59
2023-05-22T06:29:38.679Z,101410.63
2023-05-22T06:32:07.902Z,101407.69
2023-05-22T06:34:35.731Z,101409.09
2023-05-22T06:37:04.028Z,101408.28
2023-05-22T06:39:32.101Z,101396.44
2023-05-22T06:41:59.196Z,101397.00
2023-05-22T06:44:26.100Z,101398.63
2023-05-22T06:46:53.192Z,101400.25
2023-05-22T06:49:21.441Z,101401.38
2023-05-22T06:51:48.415Z,101395.41
2023-05-22T06:54:28.609Z,101388.13
2023-05-22T06:56:55.687Z,101393.28
2023-05-22T06:59:24.348Z,101391.66
2023-05-22T07:02:05.405Z,101387.06
2023-05-22T07:04:39.838Z,101391.72
2023-05-22T07:07:09.795Z,101405.81
2023-05-22T07:09:37.496Z,101405.56
2023-05-22T07:12:06.524Z,101401.53
2023-05-22T07:14:33.811Z,101408.03
2023-05-22T07:17:01.128Z,101411.28
2023-05-22T07:19:28.732Z,101418.03
2023-05-22T07:21:58.729Z,101411.56
2023-05-22T07:24:25.716Z,101416.19
2023-05-22T07:26:52.643Z,101413.47
2023-05-22T07:29:20.779Z,101417.28
2023-05-22T07:31:49.417Z,101425.63
2023-05-22T07:34:16.812Z,101427.56
2023-05-22T07:36:43.806Z,101432.13
2023-05-22T07:39:12.123Z,101436.44
2023-05-22T07:41:39.818Z,101433.47
2023-05-22T07:44:07.309Z,101430.75
2023-05-22T07:46:37.440Z,101433.66
2023-05-22T07:49:04.519Z,101432.03
2023-05-22T07:51:32.050Z,101438.19
2023-05-22T07:56:32.458Z,101440.28
2023-05-22T07:59:01.035Z,101427.81
2023-05-22T08:01:27.959Z,101425.69
2023-05-22T08:03:54.970Z,101431.69
2023-05-22T08:06:23.684Z,101430.59
2023-05-22T08:08:52.948Z,101436.31
2023-05-22T08:11:20.014Z,101430.09
2023-05-22T08:13:48.621Z,101437.66
2023-05-22T08:16:15.747Z,101430.59
2023-05-22T08:18:42.706Z,101429.78
2023-05-22T08:21:09.622Z,101428.69
2023-05-22T08:23:38.390Z,101420.88
2023-05-22T08:26:08.695Z,101420.28
2023-05-22T08:28:36.715Z,101425.16
2023-05-22T08:31:05.180Z,101420.31
2023-05-22T08:33:32.128Z,101414.59
2023-05-22T08:35:59.054Z,101411.91
2023-05-22T08:38:25.981Z,101406.22
2023-05-22T08:40:57.021Z,101406.25
2023-05-22T08:43:24.577Z,101407.91
2023-05-22T08:45:59.566Z,101407.66
2023-05-22T08:48:33.457Z,101412.00
2023-05-22T08:51:04.789Z,101404.47
2023-05-22T08:53:35.491Z,101400.69
2023-05-22T08:56:04.895Z,101401.19
2023-05-22T08:58:34.575Z,101399.03
2023-05-22T09:01:03.393Z,101402.50
2023-05-22T09:03:35.038Z,101389.56
2023-05-22T09:06:04.503Z,101399.28
2023-05-22T09:08:31.413Z,101399.03
2023-05-22T09:10:58.440Z,101390.69
2023-05-22T09:13:27.523Z,101388.00
2023-05-22T09:15:59.491Z,101395.03
2023-05-22T09:18:29.550Z,101397.75
2023-05-22T09:21:03.697Z,101391.28
2023-05-22T09:23:33.833Z,101392.34
2023-05-22T09:26:02.740Z,101394.50
2023-05-22T09:28:35.016Z,101388.53
2023-05-22T09:31:04.401Z,101395.28
2023-05-22T09:33:32.247Z,101389.06
2023-05-22T09:36:01.435Z,101386.91
2023-05-22T09:38:30.110Z,101384.97
2023-05-22T09:40:57.156Z,101377.91
2023-05-22T09:43:25.566Z,101368.19
2023-05-22T09:45:58.129Z,101367.38
2023-05-22T09:48:25.543Z,101360.06
2023-05-22T09:50:54.585Z,101371.75
2023-05-22T09:53:27.991Z,101373.13
2023-05-22T09:55:57.964Z,101365.06
2023-05-22T09:58:27.831Z,101370.75
2023-05-22T10:00:56.469Z,101373.44
2023-05-22T10:03:26.495Z,101374.00
2023-05-22T10:05:56.781Z,101372.09
2023-05-22T10:08:28.632Z,101374.00
2023-05-22T10:10:56.064Z,101379.44
2023-05-22T10:13:26.097Z,101378.38
2023-05-22T10:15:54.345Z,101384.34
2023-05-22T10:18:23.050Z,101376.22
2023-05-22T10:20:50.704Z,101373.47
2023-05-22T10:23:18.656Z,101372.94
2023-05-22T10:25:47.282Z,101368.59
2023-05-22T10:28:21.522Z,101361.81
2023-05-22T10:31:00.309Z,101368.06
2023-05-22T10:33:36.665Z,101366.47
2023-05-22T10:36:08.595Z,101365.88
2023-05-22T10:38:53.804Z,101364.81
2023-05-22T10:41:23.368Z,101366.47
2023-05-22T10:43:51.255Z,101378.63
2023-05-22T10:46:18.912Z,101371.88
2023-05-22T10:48:47.870Z,101372.13
2023-05-22T10:51:19.280Z,101378.34
2023-05-22T10:53:53.200Z,101365.94
2023-05-22T10:56:25.122Z,101371.88
2023-05-22T10:59:05.034Z,101365.94
2023-05-22T11:01:37.732Z,101365.94
2023-05-22T11:04:15.941Z,101360.53
2023-05-22T11:06:46.003Z,101356.19
2023-05-22T11:09:26.729Z,101352.94
2023-05-22T11:12:18.350Z,101340.47
2023-05-22T11:14:54.102Z,101335.88
2023-05-22T11:17:23.441Z,101329.94
2023-05-22T11:20:00.048Z,101330.47
2023-05-22T11:22:35.983Z,101321.53
2023-05-22T11:25:10.622Z,101319.41
2023-05-22T11:27:41.735Z,101322.66
2023-05-22T11:30:10.945Z,101314.00
2023-05-22T11:32:41.170Z,101312.34
2023-05-22T11:35:08.945Z,101317.75
2023-05-22T11:37:39.764Z,101313.41
2023-05-22T11:40:08.717Z,101309.63
2023-05-22T11:42:38.360Z,101311.25
2023-05-22T11:45:07.143Z,101311.25
2023-05-22T11:47:34.706Z,101304.75
2023-05-22T11:50:02.290Z,101309.09
2023-05-22T11:52:33.366Z,101299.66
2023-05-22T11:55:00.674Z,101300.47
2023-05-22T11:57:28.269Z,101304.22
2023-05-22T11:59:56.568Z,101301.50
2023-05-22T12:02:23.584Z,101289.59
2023-05-22T12:04:55.573Z,101293.38
2023-05-22T12:07:25.852Z,101282.56
2023-05-22T12:09:55.740Z,101282.25
2023-05-22T12:12:23.358Z,101289.53
2023-05-22T12:14:50.476Z,101276.53
2023-05-22T12:17:20.180Z,101278.91
2023-05-22T12:19:47.673Z,101284.56
2023-05-22T12:22:14.963Z,101275.34
2023-05-22T12:24:46.045Z,101268.81
2023-05-22T12:27:14.421Z,101276.94
2023-05-22T12:29:43.013Z,101278.03
2023-05-22T12:32:12.280Z,101280.22
2023-05-22T12:34:45.911Z,101274.81
2023-05-22T12:37:21.053Z,101275.09
2023-05-22T12:39:56.342Z,101276.22
2023-05-22T12:42:23.658Z,101277.06
2023-05-22T12:44:53.872Z,101281.94
2023-05-22T12:47:23.378Z,101273.84
2023-05-22T12:49:52.377Z,101271.94
2023-05-22T12:52:19.670Z,101263.28
2023-05-22T12:54:46.685Z,101261.94
2023-05-22T12:57:13.739Z,101252.19
2023-05-22T12:59:40.780Z,101245.19
2023-05-22T13:02:08.152Z,101242.72
2023-05-22T13:04:35.448Z,101245.19
2023-05-22T13:07:03.944Z,101234.06
2023-05-22T13:09:30.928Z,101219.72
2023-05-22T13:11:57.951Z,101219.72
2023-05-22T13:14:25.032Z,101212.97
2023-05-22T13:16:51.984Z,101203.53
2023-05-22T13:19:19.044Z,101198.16
2023-05-22T13:21:46.030Z,101201.38
2023-05-22T13:24:14.357Z,101202.72
2023-05-22T13:26:41.280Z,101200.22
2023-05-22T13:29:08.275Z,101205.88
2023-05-22T13:31:37.425Z,101201.72
2023-05-22T13:34:05.429Z,101210.25
2023-05-22T13:36:33.012Z,101202.31
2023-05-22T13:39:00.127Z,101203.78
2023-05-22T13:41:28.588Z,101212.06
2023-05-22T13:43:55.546Z,101196.78
2023-05-22T13:46:22.791Z,101199.97
2023-05-22T13:48:49.866Z,101202.59
2023-05-22T13:51:17.005Z,101212.28
2023-05-22T13:53:44.226Z,101212.34
2023-05-22T13:56:11.217Z,101217.28
2023-05-22T13:58:39.490Z,101218.94
2023-05-22T14:01:06.416Z,101210.53
2023-05-22T14:03:33.605Z,101203.66
2023-05-22T14:06:00.737Z,101200.66
2023-05-22T14:08:27.846Z,101201.06
2023-05-22T14:10:54.855Z,101192.44
2023-05-22T14:13:21.931Z,101197.63
2023-05-22T14:15:50.407Z,101201.56
2023-05-22T14:18:17.506Z,101200.63
2023-05-22T14:20:45.970Z,101193.13
2023-05-22T14:23:14.167Z,101192.56
2023-05-22T14:25:43.195Z,101183.31
2023-05-22T14:28:10.463Z,101189.13
2023-05-22T14:30:38.078Z,101183.69
2023-05-22T14:33:07.208Z,101179.03
2023-05-22T14:35:34.730Z,101178.47
2023-05-22T14:38:02.002Z,101178.34
2023-05-22T14:40:28.941Z,101173.19
2023-05-22T14:42:59.520Z,101170.41
2023-05-22T14:45:26.456Z,101178.53
2023-05-22T14:47:54.506Z,101178.19
2023-05-22T14:50:22.937Z,101176.97
2023-05-22T14:52:50.086Z,101182.50
2023-05-22T14:55:17.896Z,101176.34
2023-05-22T14:57:45.099Z,101173.94
2023-05-22T15:00:14.103Z,101174.38
2023-05-22T15:02:41.295Z,101167.13
2023-05-22T15:05:09.615Z,101172.75
2023-05-22T15:10:09.875Z,101160.81
2023-05-22T15:12:37.005Z,101163.84
2023-05-22T15:15:04.869Z,101157.53
2023-05-22T15:17:32.462Z,101162.84
2023-05-22T15:19:59.651Z,101156.91
2023-05-22T15:22:26.670Z,101151.00
2023-05-22T15:25:06.372Z,101153.63
2023-05-22T15:27:35.006Z,101144.94
2023-05-22T15:30:02.831Z,101153.69
2023-05-22T15:32:32.164Z,101156.19
2023-05-22T15:34:59.278Z,101149.09
2023-05-22T15:37:26.877Z,101153.09
2023-05-22T15:39:53.950Z,101147.59
2023-05-22T15:42:22.291Z,101154.91
2023-05-22T15:44:49.309Z,101147.75
2023-05-22T15:47:16.649Z,101160.09
2023-05-22T15:49:43.589Z,101156.69
2023-05-22T15:52:10.651Z,101162.97
2023-05-22T15:54:37.752Z,101156.09
2023-05-22T15:57:05.222Z,101159.03
2023-05-22T15:59:33.615Z,101152.56
2023-05-22T16:02:00.747Z,101167.72
2023-05-22T16:04:27.854Z,101167.50
2023-05-22T16:06:54.913Z,101162.38
2023-05-22T16:09:21.898Z,101165.44
2023-05-22T16:11:49.170Z,101170.69
2023-05-22T16:14:16.209Z,101163.41
2023-05-22T16:16:44.559Z,101174.03
2023-05-22T16:19:11.625Z,101164.38
2023-05-22T16:21:38.954Z,101170.84
2023-05-22T16:24:06.986Z,101180.47
2023-05-22T16:26:34.101Z,101178.69
2023-05-22T16:29:01.507Z,101173.94
2023-05-22T16:31:29.878Z,101175.94
2023-05-22T16:33:58.130Z,101184.69
2023-05-22T16:36:26.445Z,101189.31
2023-05-22T16:38:54.237Z,101192.88
2023-05-22T16:41:22.828Z,101191.59
2023-05-22T16:43:50.308Z,101192.72
2023-05-22T16:46:18.528Z,101193.06
2023-05-22T16:48:45.518Z,101196.94
2023-05-22T16:51:13.920Z,101190.56
2023-05-22T16:53:41.718Z,101182.00
2023-05-22T16:56:08.845Z,101178.31
2023-05-22T16:58:35.874Z,101177.84
2023-05-22T17:01:03.203Z,101177.09
2023-05-22T17:03:30.208Z,101171.19
2023-05-22T17:05:57.367Z,101167.22
2023-05-22T17:08:28.269Z,101169.94
2023-05-22T17:10:55.690Z,101166.47
2023-05-22T17:13:22.663Z,101166.78
2023-05-22T17:15:50.909Z,101171.69
2023-05-22T17:18:22.222Z,101181.44
2023-05-22T17:20:51.124Z,101175.75
2023-05-22T17:23:18.313Z,101186.88
2023-05-22T17:25:46.953Z,101184.16
2023-05-22T17:28:14.365Z,101186.34
2023-05-22T17:30:42.245Z,101190.09
2023-05-22T17:33:09.668Z,101185.25
2023-05-22T17:35:36.749Z,101200.16
2023-05-22T17:38:03.690Z,101221.75
2023-05-22T17:40:40.391Z,101219.88
2023-05-22T17:43:11.914Z,101221.78
2023-05-22T17:45:39.640Z,101219.91
2023-05-22T17:48:07.405Z,101223.66
2023-05-22T17:50:34.447Z,101230.47
2023-05-22T17:53:01.388Z,101230.19
2023-05-22T17:55:28.363Z,101240.97
2023-05-22T17:57:55.974Z,101237.19
2023-05-22T18:00:24.363Z,101228.00
2023-05-22T18:02:51.407Z,101237.44
2023-05-22T18:05:18.579Z,101241.47
2023-05-22T18:07:45.585Z,101240.38
2023-05-22T18:10:12.576Z,101238.47
2023-05-22T18:12:39.558Z,101240.63
2023-05-22T18:15:09.529Z,101240.59
2023-05-22T18:17:37.906Z,101255.72
2023-05-22T18:20:09.227Z,101272.72
2023-05-22T18:22:38.716Z,101274.31
2023-05-22T18:25:07.785Z,101281.31
2023-05-22T18:27:35.381Z,101279.69
2023-05-22T18:30:03.462Z,101284.03
2023-05-22T18:32:30.808Z,101282.97
2023-05-22T18:34:59.672Z,101289.72
2023-05-22T18:37:26.805Z,101288.34
2023-05-22T18:39:53.866Z,101300.69
2023-05-22T18:42:21.100Z,101308.22
2023-05-22T18:44:49.333Z,101298.44
2023-05-22T18:47:16.828Z,101297.34
2023-05-22T18:49:44.550Z,101292.47
2023-05-22T18:52:12.937Z,101293.00
2023-05-22T18:54:40.025Z,101295.13
2023-05-22T18:57:06.978Z,101294.31
2023-05-22T18:59:33.984Z,101292.72
2023-05-22T19:02:00.941Z,101282.44
2023-05-22T19:04:27.978Z,101290.25
2023-05-22T19:06:56.354Z,101293.47
2023-05-22T19:09:24.717Z,101292.91
2023-05-22T19:11:51.764Z,101295.03
2023-05-22T19:14:18.782Z,101288.78
2023-05-22T19:16:45.822Z,101292.25
2023-05-22T19:19:14.546Z,101293.81
2023-05-22T19:21:41.662Z,101293.81
2023-05-22T19:24:08.627Z,101293.00
2023-05-22T19:26:36.976Z,101292.19
2023-05-22T19:29:03.965Z,101281.41
2023-05-22T19:31:31.206Z,101291.72
2023-05-22T19:33:58.406Z,101294.41
2023-05-22T19:36:25.617Z,101288.44
2023-05-22T19:38:53.701Z,101288.44
2023-05-22T19:41:22.718Z,101292.19
2023-05-22T19:43:51.652Z,101288.63
2023-05-22T19:46:18.753Z,101296.13
2023-05-22T19:48:45.832Z,101296.88
2023-05-22T19:51:12.908Z,101291.97
2023-05-22T19:53:41.076Z,101302.16
2023-05-22T19:56:08.129Z,101307.47
2023-05-22T19:58:35.082Z,101307.44
2023-05-22T20:01:03.365Z,101307.44
2023-05-22T20:03:30.407Z,101297.16
2023-05-22T20:05:57.579Z,101297.66
2023-05-22T20:08:25.332Z,101291.66
2023-05-22T20:10:52.625Z,101293.25
2023-05-22T20:13:19.630Z,101294.25
2023-05-22T20:15:51.253Z,101295.81
2023-05-22T20:18:20.731Z,101289.31
2023-05-22T20:20:47.806Z,101285.50
2023-05-22T20:23:14.795Z,101287.66
2023-05-22T20:25:42.040Z,101292.44
2023-05-22T20:28:09.168Z,101290.50
2023-05-22T20:30:36.187Z,101288.59
2023-05-22T20:33:03.393Z,101288.53
2023-05-22T20:35:32.156Z,101291.16
2023-05-22T20:38:04.183Z,101284.09
2023-05-22T20:40:34.566Z,101286.72
2023-05-22T20:43:04.578Z,101293.91
2023-05-22T20:45:32.182Z,101296.31
2023-05-22T20:47:59.274Z,101294.59
2023-05-22T20:50:27.054Z,101284.81
2023-05-22T20:52:55.412Z,101294.47
2023-05-22T20:55:22.464Z,101295.44
2023-05-22T20:57:49.395Z,101295.38
2023-05-22T21:00:16.969Z,101286.66
2023-05-22T21:02:44.068Z,101292.50
2023-05-22T21:05:11.149Z,101302.84
2023-05-22T21:07:38.143Z,101296.81
2023-05-22T21:10:09.581Z,101300.72
2023-05-22T21:12:36.533Z,101296.84
2023-05-22T21:15:04.283Z,101306.47
2023-05-22T21:17:31.715Z,101319.78
2023-05-22T21:19:58.697Z,101316.53
2023-05-22T21:22:25.765Z,101322.38
2023-05-22T21:24:52.729Z,101321.00
2023-05-22T21:27:20.973Z,101320.69
2023-05-22T21:29:47.956Z,101325.97
2023-05-22T21:32:15.030Z,101329.13
2023-05-22T21:34:41.956Z,101337.09
2023-05-22T21:37:09.154Z,101333.75
2023-05-22T21:39:36.117Z,101327.72
2023-05-22T21:42:03.793Z,101333.81
2023-05-22T21:44:32.747Z,101331.28
2023-05-22T21:46:59.802Z,101333.88
2023-05-22T21:49:26.921Z,101337.53
2023-05-22T21:51:53.850Z,101334.75
2023-05-22T21:54:21.081Z,101337.63
2023-05-22T21:56:48.047Z,101334.16
2023-05-22T21:59:15.093Z,101330.41
2023-05-22T22:01:43.491Z,101337.41
2023-05-22T22:04:10.497Z,101336.13
2023-05-22T22:06:37.788Z,101343.94
2023-05-22T22:09:04.897Z,101342.63
2023-05-22T22:11:31.911Z,101339.72
2023-05-22T22:13:58.861Z,101339.72
2023-05-22T22:16:26.055Z,101345.44
2023-05-22T22:18:54.527Z,101344.13
2023-05-22T22:21:26.830Z,101339.59
2023-05-22T22:23:53.758Z,101342.03
2023-05-22T22:26:20.842Z,101344.22
2023-05-22T22:28:47.771Z,101343.72
2023-05-22T22:31:14.674Z,101336.50
2023-05-22T22:33:41.567Z,101347.50
2023-05-22T22:36:09.865Z,101346.56
2023-05-22T22:38:38.352Z,101352.09
2023-05-22T22:41:08.551Z,101351.97
2023-05-22T22:43:36.005Z,101349.19
2023-05-22T22:46:02.971Z,101361.69
2023-05-22T22:48:29.949Z,101355.72
2023-05-22T22:50:58.006Z,101353.28
2023-05-22T22:53:26.322Z,101352.94
2023-05-22T22:55:56.735Z,101364.16
2023-05-22T22:58:23.849Z,101366.97
2023-05-22T23:00:50.828Z,101363.13
2023-05-22T23:03:17.758Z,101372.72
2023-05-22T23:05:45.018Z,101370.75
2023-05-22T23:08:12.306Z,101367.13
2023-05-22T23:10:40.575Z,101375.53
2023-05-22T23:13:07.512Z,101369.47
2023-05-22T23:15:34.547Z,101367.16
2023-05-22T23:18:01.588Z,101365.41
2023-05-22T23:20:28.584Z,101369.84
2023-05-22T23:22:55.528Z,101371.59
2023-05-22T23:25:22.509Z,101364.22
2023-05-22T23:27:52.012Z,101368.41
2023-05-22T23:30:19.293Z,101363.97
2023-05-22T23:32:46.362Z,101354.78
2023-05-22T23:35:13.378Z,101349.88
2023-05-22T23:37:40.409Z,101349.28
2023-05-22T23:40:09.540Z,101350.56
2023-05-22T23:42:37.311Z,101342.97
2023-05-22T23:45:07.427Z,101341.59
2023-05-22T23:47:34.449Z,101344.50
2023-05-22T23:50:01.779Z,101341.25
2023-05-22T23:52:28.698Z,101336.09
2023-05-22T23:54:55.619Z,101337.97
2023-05-22T23:57:22.688Z,101339.25
2023-05-22T23:59:49.672Z,101337.16
